Time;durP1;ratioP1;P1;durP2;ratioP2;P2;SDS_P1;SDS_P2;PMS_P1;PMS_P2;Temp;Humidity;BMP_temperature;BMP_pressure;BME280_temperature;BME280_humidity;BME280_pressure;Samples;Min_cycle;Max_cycle;Signal;HPM_P1;HPM_P2
2021/01/07 00:40:11;;;;;;;7.37;5.20;;;8.30;89.00;;;;;;5024717;28;20174;-93
2021/01/07 00:42:43;;;;;;;9.17;5.53;;;8.30;89.10;;;;;;5034558;28;20181;-92
2021/01/07 00:45:09;;;;;;;7.50;5.53;;;8.30;88.80;;;;;;5036517;28;20181;-94
2021/01/07 00:47:35;;;;;;;8.40;5.73;;;8.30;88.90;;;;;;5023127;28;20237;-93
2021/01/07 00:50:01;;;;;;;7.53;5.50;;;8.30;89.20;;;;;;5019850;28;20720;-94
2021/01/07 00:52:27;;;;;;;6.40;5.23;;;8.20;89.20;;;;;;5019779;28;20203;-93
2021/01/07 00:55:14;;;;;;;6.23;5.60;;;8.20;89.40;;;;;;5020796;28;20204;-94
2021/01/07 00:57:40;;;;;;;4.87;4.47;;;8.10;89.20;;;;;;5019206;28;20626;-94
2021/01/07 01:00:16;;;;;;;7.53;4.63;;;8.10;89.60;;;;;;5018186;28;20284;-93
2021/01/07 01:02:42;;;;;;;7.10;4.43;;;8.00;89.10;;;;;;5017407;28;20253;-91
2021/01/07 01:05:08;;;;;;;5.03;4.10;;;8.00;89.10;;;;;;5017565;28;20192;-92
2021/01/07 01:07:34;;;;;;;5.13;4.47;;;8.00;89.20;;;;;;5017533;28;20182;-92
2021/01/07 01:10:08;;;;;;;5.00;3.90;;;8.00;89.30;;;;;;5016944;28;20731;-91
2021/01/07 01:12:35;;;;;;;5.57;4.57;;;7.90;89.50;;;;;;5016596;28;20196;-92
2021/01/07 01:15:01;;;;;;;5.20;3.83;;;7.90;89.30;;;;;;5016962;28;20245;-93
2021/01/07 01:17:34;;;;;;;3.83;3.53;;;7.90;89.20;;;;;;5019471;28;20173;-94
2021/01/07 01:20:26;;;;;;;3.87;3.57;;;7.90;89.50;;;;;;5020320;28;20160;-94
2021/01/07 02:33:57;;;;;;;4.27;3.87;;;7.40;90.70;;;;;;4977990;28;20216;-93
2021/01/07 02:36:51;;;;;;;4.07;3.67;;;7.40;91.10;;;;;;4978606;28;20186;-93
2021/01/07 02:39:17;;;;;;;4.47;4.07;;;7.40;90.70;;;;;;4959101;28;20182;-92
2021/01/07 02:41:53;;;;;;;5.20;3.77;;;7.40;91.10;;;;;;4960814;28;20187;-92
2021/01/07 02:44:20;;;;;;;4.90;4.40;;;7.30;90.90;;;;;;4961259;28;20178;-92
2021/01/07 02:46:47;;;;;;;5.00;4.40;;;7.20;92.20;;;;;;4960816;28;20197;-93
2021/01/07 02:56:00;;;;;;;3.27;3.07;;;7.20;91.30;;;;;;4988822;28;20246;-83
2021/01/07 02:58:26;;;;;;;4.20;3.80;;;7.20;91.50;;;;;;4970677;28;20167;-84
2021/01/07 03:00:52;;;;;;;4.47;4.07;;;7.10;92.40;;;;;;4954396;28;20345;-83
2021/01/07 03:03:18;;;;;;;6.00;4.67;;;7.10;92.20;;;;;;4957237;28;20178;-92
2021/01/07 03:06:31;;;;;;;3.67;3.37;;;7.10;91.90;;;;;;4969577;28;20253;-93
2021/01/07 03:08:57;;;;;;;5.67;4.07;;;7.10;91.60;;;;;;4974766;28;20191;-91
2021/01/07 03:11:23;;;;;;;3.83;3.63;;;7.10;91.90;;;;;;4959555;28;20217;-92
2021/01/07 03:17:12;;;;;;;5.00;4.03;;;7.10;91.60;;;;;;4973620;28;20695;-93
2021/01/07 03:23:25;;;;;;;4.23;3.83;;;7.10;92.20;;;;;;4896980;29;21001;-91
2021/01/07 03:25:51;;;;;;;4.93;3.30;;;7.00;92.20;;;;;;4881644;29;20181;-91
2021/01/07 03:28:17;;;;;;;4.37;3.80;;;7.00;92.80;;;;;;4880953;29;20213;-90
2021/01/07 03:30:43;;;;;;;2.63;2.43;;;6.90;92.90;;;;;;4881142;29;20188;-88
2021/01/07 03:33:08;;;;;;;2.87;2.67;;;7.00;92.60;;;;;;4881226;29;20217;-90
2021/01/07 03:36:05;;;;;;;2.40;2.20;;;7.00;92.70;;;;;;4881503;29;20249;-91
2021/01/07 03:38:31;;;;;;;3.47;2.47;;;7.10;92.20;;;;;;4836829;29;20269;-91
2021/01/07 03:41:12;;;;;;;3.37;3.07;;;7.10;92.40;;;;;;4849157;29;20222;-93
2021/01/07 03:43:38;;;;;;;1.83;1.73;;;7.10;92.10;;;;;;4828109;29;20230;-92
2021/01/07 03:46:03;;;;;;;3.17;2.93;;;7.20;91.30;;;;;;4839174;29;20267;-91
2021/01/07 03:48:29;;;;;;;3.37;2.20;;;7.20;91.30;;;;;;4843735;29;20205;-91
2021/01/07 03:50:55;;;;;;;0.87;0.87;;;7.30;91.60;;;;;;4843655;29;20342;-93
2021/01/07 03:53:21;;;;;;;1.70;1.63;;;7.30;91.00;;;;;;4889981;29;20215;-92
2021/01/07 03:55:55;;;;;;;2.40;2.30;;;7.50;91.00;;;;;;4921421;29;20695;-94
2021/01/07 03:58:20;;;;;;;0.70;0.70;;;7.60;90.60;;;;;;4920390;29;20180;-92
2021/01/07 04:00:46;;;;;;;1.07;1.07;;;7.70;89.70;;;;;;4921289;29;20761;-94
2021/01/07 04:03:38;;;;;;;0.97;0.97;;;7.80;89.50;;;;;;4920809;29;20906;-93
2021/01/07 04:06:04;;;;;;;1.03;1.03;;;7.90;88.90;;;;;;4916517;29;20203;-92
2021/01/07 04:08:30;;;;;;;1.70;1.20;;;8.00;89.00;;;;;;4919451;29;20295;-90
2021/01/07 04:10:56;;;;;;;1.00;1.00;;;8.00;88.20;;;;;;4919508;29;20188;-92
2021/01/07 04:13:22;;;;;;;0.20;0.20;;;8.10;87.90;;;;;;4918859;29;20231;-93
2021/01/07 04:15:48;;;;;;;0.60;0.50;;;8.30;86.30;;;;;;4970432;28;20205;-92
2021/01/07 04:18:14;;;;;;;0.30;0.30;;;8.50;86.10;;;;;;4997365;28;20187;-91
2021/01/07 04:20:40;;;;;;;0.77;0.30;;;8.60;85.30;;;;;;4998318;28;20216;-93
2021/01/07 04:23:08;;;;;;;0.30;0.30;;;8.80;83.80;;;;;;4997816;28;20181;-90
2021/01/07 04:25:34;;;;;;;0.30;0.30;;;9.00;82.60;;;;;;5008690;28;20275;-91
2021/01/07 04:28:00;;;;;;;0.10;0.10;;;9.20;82.80;;;;;;5018213;28;20284;-92
2021/01/07 04:30:26;;;;;;;0.20;0.20;;;9.40;81.70;;;;;;5020365;28;20180;-94
2021/01/07 04:32:55;;;;;;;0.20;0.20;;;9.50;82.00;;;;;;5022659;28;20202;-92
2021/01/07 04:35:21;;;;;;;0.25;0.25;;;9.50;81.20;;;;;;5028587;28;20239;-91
2021/01/07 04:37:52;;;;;;;0.70;0.70;;;9.60;80.50;;;;;;5029609;28;20263;-90
2021/01/07 04:41:12;;;;;;;1.38;1.38;;;9.70;82.00;;;;;;5023876;28;20264;-93
2021/01/07 04:44:05;;;;;;;1.40;1.40;;;9.60;82.80;;;;;;4975721;28;20182;-94
2021/01/07 04:50:14;;;;;;;0.40;0.40;;;9.20;83.40;;;;;;4898743;29;20358;-93
2021/01/07 04:52:46;;;;;;;0.70;0.70;;;9.30;80.50;;;;;;4882967;29;20308;-95
2021/01/07 04:55:13;;;;;;;0.30;0.30;;;9.40;82.50;;;;;;4883169;29;20189;-94
2021/01/07 04:57:43;;;;;;;1.10;1.08;;;9.40;81.30;;;;;;4882850;29;20196;-95
2021/01/07 05:00:11;;;;;;;0.60;0.60;;;9.40;81.90;;;;;;4883478;29;20576;-94
2021/01/07 05:02:45;;;;;;;0.87;0.23;;;9.40;80.80;;;;;;4884203;29;20294;-94
2021/01/07 05:05:11;;;;;;;0.20;0.20;;;9.50;79.90;;;;;;4884371;29;20635;-95
2021/01/07 05:07:45;;;;;;;3.75;0.40;;;9.60;79.40;;;;;;4882090;29;20189;-93
2021/01/07 05:10:16;;;;;;;0.20;0.20;;;9.70;79.00;;;;;;4882766;29;20201;-94
2021/01/07 05:16:05;;;;;;;0.20;0.20;;;10.00;78.50;;;;;;4956440;29;20182;-95
2021/01/07 05:18:33;;;;;;;0.30;0.30;;;10.10;77.90;;;;;;4981234;28;20189;-94
2021/01/07 05:21:07;;;;;;;0.20;0.20;;;10.10;78.00;;;;;;4997332;28;20714;-93
2021/01/07 05:23:33;;;;;;;0.20;0.20;;;10.10;77.70;;;;;;4994563;28;20185;-89
2021/01/07 05:26:00;;;;;;;0.30;0.30;;;10.20;77.60;;;;;;4996860;28;20238;-90
2021/01/07 05:28:29;;;;;;;0.30;0.30;;;10.30;77.70;;;;;;4992051;28;20204;-90
2021/01/07 05:30:59;;;;;;;0.20;0.20;;;10.30;77.50;;;;;;4993236;28;20289;-90
2021/01/07 05:33:27;;;;;;;0.20;0.20;;;10.30;77.50;;;;;;5004714;28;20247;-89
2021/01/07 05:35:55;;;;;;;0.20;0.20;;;10.30;77.30;;;;;;5006929;28;20184;-89
2021/01/07 05:38:21;;;;;;;0.30;0.25;;;10.30;77.10;;;;;;5012351;28;20185;-90
2021/01/07 05:40:52;;;;;;;0.25;0.25;;;10.40;77.10;;;;;;5013438;28;20238;-91
2021/01/07 05:46:42;;;;;;;0.10;0.10;;;10.40;76.80;;;;;;5023668;28;20647;-89
2021/01/07 05:49:07;;;;;;;0.30;0.30;;;10.40;76.30;;;;;;5012644;28;20180;-89
2021/01/07 05:51:37;;;;;;;0.20;0.20;;;10.50;76.50;;;;;;5012355;28;20180;-89
2021/01/07 05:54:03;;;;;;;0.82;0.10;;;10.50;75.10;;;;;;5012870;28;20188;-88
2021/01/07 05:56:30;;;;;;;0.20;0.20;;;10.50;75.00;;;;;;5012783;28;20191;-89
2021/01/07 05:58:55;;;;;;;0.20;0.20;;;10.60;75.40;;;;;;5012650;28;20187;-89
2021/01/07 06:01:23;;;;;;;0.20;0.20;;;10.60;75.70;;;;;;5016074;28;20566;-88
2021/01/07 06:03:54;;;;;;;0.20;0.20;;;10.60;75.80;;;;;;5013609;28;20275;-82
2021/01/07 06:06:22;;;;;;;0.20;0.20;;;10.60;75.40;;;;;;5019626;28;20195;-83
2021/01/07 06:08:52;;;;;;;0.22;0.22;;;10.60;75.70;;;;;;5007648;28;20181;-84
2021/01/07 06:11:20;;;;;;;2.17;0.30;;;10.60;75.40;;;;;;5009176;28;20180;-84
2021/01/07 06:13:48;;;;;;;0.30;0.30;;;10.60;75.70;;;;;;5014765;28;20583;-84
2021/01/07 06:16:22;;;;;;;0.20;0.20;;;10.70;75.90;;;;;;5031527;28;20179;-83
2021/01/07 06:18:48;;;;;;;0.88;0.30;;;10.70;75.70;;;;;;5014350;28;20186;-83
2021/01/07 06:21:16;;;;;;;2.38;0.40;;;10.70;75.10;;;;;;5032460;28;20188;-85
2021/01/07 06:23:44;;;;;;;0.38;0.38;;;10.70;75.10;;;;;;5032602;28;20184;-84
2021/01/07 06:26:27;;;;;;;0.30;0.30;;;10.70;75.20;;;;;;5016244;28;20271;-85
2021/01/07 06:28:56;;;;;;;0.30;0.30;;;10.70;75.20;;;;;;4996288;28;20196;-85
2021/01/07 06:31:33;;;;;;;0.30;0.30;;;10.70;75.00;;;;;;5014436;28;20186;-85
2021/01/07 06:33:59;;;;;;;0.20;0.20;;;10.70;75.30;;;;;;5034223;28;20286;-85
2021/01/07 06:36:38;;;;;;;0.20;0.20;;;10.80;75.30;;;;;;5032825;28;20266;-85
2021/01/07 06:39:06;;;;;;;0.30;0.30;;;10.80;75.10;;;;;;5033469;28;20236;-83
2021/01/07 06:41:32;;;;;;;0.28;0.28;;;10.80;75.10;;;;;;5020222;28;20172;-86
2021/01/07 06:43:59;;;;;;;0.30;0.30;;;10.80;74.90;;;;;;5019579;28;20180;-87
2021/01/07 06:46:46;;;;;;;0.28;0.28;;;10.80;74.80;;;;;;5018848;28;20180;-85
2021/01/07 06:49:32;;;;;;;0.32;0.32;;;10.80;75.10;;;;;;5017906;28;20207;-85
2021/01/07 06:52:02;;;;;;;0.30;0.30;;;10.90;75.00;;;;;;5016329;28;20173;-85
2021/01/07 06:54:33;;;;;;;0.28;0.28;;;10.90;75.00;;;;;;5016647;28;20173;-86
2021/01/07 06:57:04;;;;;;;0.43;0.43;;;10.90;75.00;;;;;;5018321;28;20167;-86
2021/01/07 06:59:30;;;;;;;0.38;0.38;;;10.90;75.10;;;;;;5012165;28;20547;-84
2021/01/07 07:01:58;;;;;;;0.40;0.40;;;10.90;74.90;;;;;;5018462;28;20293;-86
2021/01/07 07:04:28;;;;;;;0.60;0.30;;;10.90;75.10;;;;;;5021807;28;20192;-85
2021/01/07 07:07:20;;;;;;;0.30;0.30;;;11.00;74.90;;;;;;5019820;28;20641;-86
2021/01/07 07:09:52;;;;;;;1.55;0.60;;;11.20;74.50;;;;;;5010223;28;20276;-87
2021/01/07 07:12:30;;;;;;;3.30;0.30;;;11.50;74.20;;;;;;5012671;28;20367;-88
2021/01/07 07:14:59;;;;;;;0.40;0.40;;;11.50;73.30;;;;;;5036419;28;20199;-87
2021/01/07 07:17:28;;;;;;;0.45;0.43;;;11.70;73.00;;;;;;5014621;28;20184;-86
2021/01/07 07:19:54;;;;;;;0.77;0.40;;;11.80;73.30;;;;;;5016686;28;20187;-90
2021/01/07 07:22:20;;;;;;;0.65;0.65;;;11.90;72.50;;;;;;5016640;28;20215;-81
2021/01/07 07:24:53;;;;;;;2.38;0.50;;;11.90;72.40;;;;;;5030270;28;20258;-77
2021/01/07 07:27:19;;;;;;;0.57;0.57;;;11.80;72.20;;;;;;5031491;28;20242;-78
2021/01/07 07:29:48;;;;;;;0.30;0.30;;;11.80;72.40;;;;;;5031821;28;20556;-78
2021/01/07 07:32:21;;;;;;;0.30;0.30;;;11.80;72.70;;;;;;5031870;28;20224;-76
2021/01/07 07:34:49;;;;;;;0.32;0.32;;;11.80;72.40;;;;;;5010206;28;20192;-76
2021/01/07 07:37:26;;;;;;;0.30;0.30;;;11.80;72.50;;;;;;5023275;28;20551;-77
2021/01/07 07:40:06;;;;;;;0.40;0.40;;;11.80;72.30;;;;;;5023359;28;20180;-75
2021/01/07 07:42:32;;;;;;;0.30;0.30;;;11.80;72.70;;;;;;4988697;28;20169;-79
2021/01/07 07:44:59;;;;;;;0.38;0.38;;;11.80;72.30;;;;;;4995879;28;20184;-77
2021/01/07 07:47:26;;;;;;;0.98;0.40;;;11.70;72.50;;;;;;5009105;28;20261;-81
2021/01/07 07:49:58;;;;;;;2.67;0.45;;;11.70;72.80;;;;;;5014228;28;20271;-81
2021/01/07 07:52:25;;;;;;;0.35;0.35;;;11.70;73.10;;;;;;5025159;28;20192;-79
2021/01/07 07:55:04;;;;;;;0.38;0.38;;;11.60;76.30;;;;;;5021130;28;20164;-84
2021/01/07 07:57:32;;;;;;;0.45;0.45;;;11.30;77.90;;;;;;5017705;28;20180;-82
2021/01/07 08:00:18;;;;;;;0.30;0.30;;;11.00;78.70;;;;;;5028109;28;20668;-78
2021/01/07 08:02:45;;;;;;;0.40;0.40;;;10.60;79.30;;;;;;5011027;28;20173;-79
2021/01/07 08:05:28;;;;;;;0.30;0.30;;;10.40;79.80;;;;;;5025393;28;20184;-80
2021/01/07 08:07:55;;;;;;;1.45;0.30;;;10.00;79.60;;;;;;5026924;28;20179;-77
2021/01/07 08:10:21;;;;;;;0.10;0.10;;;9.70;79.50;;;;;;5027704;28;20195;-81
2021/01/07 08:12:48;;;;;;;0.20;0.20;;;9.20;80.10;;;;;;5013489;28;20215;-82
2021/01/07 08:15:28;;;;;;;0.10;0.10;;;8.80;81.00;;;;;;5031882;28;20244;-81
2021/01/07 08:17:55;;;;;;;0.13;0.13;;;8.50;81.50;;;;;;5023797;28;20185;-83
2021/01/07 08:20:26;;;;;;;0.20;0.20;;;8.20;82.20;;;;;;5004158;28;20908;-79
2021/01/07 08:22:56;;;;;;;0.17;0.17;;;7.80;83.30;;;;;;4999137;28;20231;-79
2021/01/07 08:25:32;;;;;;;0.20;0.20;;;7.50;83.80;;;;;;5028031;28;20185;-82
2021/01/07 08:28:05;;;;;;;3.73;0.40;;;7.40;84.30;;;;;;5012510;28;20192;-83
2021/01/07 08:30:32;;;;;;;1.50;0.57;;;7.10;85.10;;;;;;5011436;28;20169;-77
2021/01/07 08:33:00;;;;;;;0.40;0.40;;;7.00;85.40;;;;;;5014433;28;20198;-78
2021/01/07 08:35:26;;;;;;;0.40;0.40;;;6.90;85.90;;;;;;5012495;28;20180;-87
2021/01/07 08:37:52;;;;;;;0.40;0.40;;;6.60;86.50;;;;;;5011300;28;20185;-83
2021/01/07 08:40:21;;;;;;;0.50;0.50;;;6.40;87.20;;;;;;5011941;28;20190;-78
2021/01/07 08:45:31;;;;;;;0.40;0.40;;;6.10;87.80;;;;;;5011421;28;20196;-80
2021/01/07 08:48:05;;;;;;;0.40;0.40;;;6.00;87.90;;;;;;5009842;28;20177;-79
2021/01/07 08:50:32;;;;;;;0.50;0.50;;;6.00;87.80;;;;;;5025787;28;20185;-79
2021/01/07 08:52:58;;;;;;;0.60;0.60;;;5.90;88.30;;;;;;5027846;28;20188;-79
2021/01/07 08:55:46;;;;;;;0.40;0.40;;;5.90;88.50;;;;;;5030321;28;21226;-79
2021/01/07 08:58:20;;;;;;;0.50;0.50;;;5.70;88.70;;;;;;5030087;28;20213;-80
2021/01/07 09:00:50;;;;;;;0.67;0.43;;;5.60;89.00;;;;;;5011932;28;20211;-78
2021/01/07 09:03:16;;;;;;;0.70;0.70;;;5.60;89.10;;;;;;5010282;28;20188;-84
2021/01/07 09:05:42;;;;;;;0.30;0.30;;;5.50;89.60;;;;;;5031631;28;20191;-84
2021/01/07 09:08:09;;;;;;;0.70;0.70;;;5.40;90.00;;;;;;5015467;28;20557;-81
2021/01/07 09:10:35;;;;;;;0.50;0.50;;;5.40;90.30;;;;;;5025454;28;20280;-77
2021/01/07 09:13:22;;;;;;;1.07;0.60;;;5.30;90.60;;;;;;5020448;28;20303;-79
2021/01/07 09:15:48;;;;;;;0.47;0.47;;;5.30;90.70;;;;;;5012305;28;20192;-84
2021/01/07 09:18:21;;;;;;;0.87;0.50;;;5.20;91.00;;;;;;5026100;28;20176;-80
2021/01/07 09:20:49;;;;;;;0.40;0.40;;;5.20;91.40;;;;;;5011535;28;20212;-82
2021/01/07 09:23:16;;;;;;;0.40;0.40;;;5.10;91.80;;;;;;5017911;28;20585;-80
2021/01/07 09:26:00;;;;;;;0.40;0.40;;;5.10;92.10;;;;;;5025940;28;20190;-79
2021/01/07 09:28:26;;;;;;;0.30;0.30;;;5.20;92.70;;;;;;5029594;28;20860;-78
2021/01/07 09:30:53;;;;;;;0.50;0.50;;;5.20;92.40;;;;;;5028183;28;20188;-78
2021/01/07 09:33:18;;;;;;;0.97;0.60;;;5.10;92.70;;;;;;5029080;28;20251;-80
2021/01/07 09:35:44;;;;;;;0.50;0.50;;;5.20;93.00;;;;;;5027629;28;20184;-78
2021/01/07 09:38:10;;;;;;;0.30;0.30;;;5.30;93.00;;;;;;5028258;28;20327;-78
2021/01/07 09:40:36;;;;;;;0.23;0.17;;;5.40;92.50;;;;;;5027188;28;20948;-77
2021/01/07 09:43:01;;;;;;;0.30;0.30;;;5.50;92.00;;;;;;5007981;28;20192;-77
2021/01/07 09:45:27;;;;;;;0.47;0.47;;;5.60;92.10;;;;;;5009483;28;20176;-83
2021/01/07 09:47:53;;;;;;;0.30;0.30;;;5.70;92.10;;;;;;5013771;28;20577;-77
2021/01/07 09:50:20;;;;;;;0.20;0.20;;;5.70;91.50;;;;;;5028993;28;20187;-77
2021/01/07 09:52:45;;;;;;;0.83;0.30;;;5.70;90.80;;;;;;5029413;28;20200;-78
2021/01/07 09:55:11;;;;;;;0.30;0.30;;;5.70;90.60;;;;;;5029237;28;20671;-78
2021/01/07 09:57:37;;;;;;;0.50;0.50;;;5.70;90.40;;;;;;5029788;28;20168;-78
2021/01/07 10:00:05;;;;;;;0.23;0.23;;;5.70;90.50;;;;;;5029326;28;20979;-78
2021/01/07 10:02:31;;;;;;;0.20;0.20;;;5.70;90.40;;;;;;5029046;28;20286;-78
2021/01/07 10:04:56;;;;;;;0.30;0.30;;;5.80;90.90;;;;;;5029519;28;20263;-78
2021/01/07 10:07:22;;;;;;;1.23;0.40;;;6.00;90.50;;;;;;5008890;28;20204;-78
2021/01/07 10:09:49;;;;;;;0.50;0.50;;;6.00;89.80;;;;;;5014162;28;20202;-78
2021/01/07 10:12:15;;;;;;;0.30;0.30;;;6.00;89.10;;;;;;5031523;28;20250;-78
2021/01/07 10:14:41;;;;;;;0.40;0.40;;;5.90;89.00;;;;;;5032946;28;20188;-78
2021/01/07 10:17:08;;;;;;;0.40;0.40;;;5.90;89.50;;;;;;5029253;28;20180;-79
2021/01/07 10:19:36;;;;;;;0.83;0.40;;;5.90;89.80;;;;;;5029947;28;20175;-78
2021/01/07 10:22:10;;;;;;;0.33;0.33;;;5.90;88.90;;;;;;5019682;28;20192;-79
2021/01/07 10:24:41;;;;;;;0.50;0.50;;;5.90;89.00;;;;;;5029247;28;20174;-78
2021/01/07 10:27:08;;;;;;;0.27;0.27;;;5.90;88.60;;;;;;5027748;28;20168;-78
2021/01/07 10:29:34;;;;;;;0.87;0.30;;;5.80;88.50;;;;;;5017662;28;20264;-78
2021/01/07 10:32:12;;;;;;;0.50;0.47;;;5.80;88.40;;;;;;5028586;28;20180;-78
2021/01/07 10:34:40;;;;;;;0.43;0.30;;;5.70;88.80;;;;;;5011130;28;20246;-82
2021/01/07 10:37:07;;;;;;;0.40;0.40;;;5.70;89.00;;;;;;5017626;28;20278;-80
2021/01/07 10:39:35;;;;;;;0.30;0.30;;;5.70;89.10;;;;;;5024795;28;20694;-82
2021/01/07 10:42:04;;;;;;;0.30;0.30;;;5.70;89.10;;;;;;5026220;28;20276;-82
2021/01/07 10:44:34;;;;;;;0.40;0.40;;;5.70;88.70;;;;;;5037543;28;20199;-81
2021/01/07 10:47:01;;;;;;;0.20;0.20;;;5.80;88.20;;;;;;5051409;28;20180;-81
2021/01/07 10:49:30;;;;;;;1.80;0.43;;;5.70;87.70;;;;;;5052982;28;20176;-80
2021/01/07 10:54:56;;;;;;;0.53;0.30;;;5.70;87.80;;;;;;5032389;28;20207;-79
2021/01/07 10:57:46;;;;;;;0.87;0.20;;;5.80;88.00;;;;;;5025292;28;20172;-81
2021/01/07 11:00:47;;;;;;;0.20;0.20;;;5.70;87.70;;;;;;5024671;28;20191;-83
2021/01/07 11:03:50;;;;;;;0.53;0.30;;;5.80;87.90;;;;;;5026116;28;20195;-78
2021/01/07 11:06:20;;;;;;;0.23;0.23;;;5.80;87.60;;;;;;5041710;28;20763;-78
2021/01/07 11:09:14;;;;;;;0.30;0.30;;;5.90;87.80;;;;;;5026858;28;20183;-83
2021/01/07 11:11:43;;;;;;;0.20;0.20;;;5.90;87.70;;;;;;5020664;28;20211;-87
2021/01/07 11:14:38;;;;;;;0.17;0.17;;;5.90;87.70;;;;;;5014949;28;20287;-88
2021/01/07 11:17:11;;;;;;;0.20;0.20;;;5.90;87.20;;;;;;4998173;28;20177;-86
2021/01/07 11:19:39;;;;;;;0.30;0.30;;;5.80;87.30;;;;;;5022501;28;20173;-84
2021/01/07 11:22:18;;;;;;;0.30;0.30;;;5.90;87.50;;;;;;5004974;28;20239;-76
2021/01/07 11:24:51;;;;;;;0.30;0.30;;;5.90;87.60;;;;;;5034243;28;20769;-78
2021/01/07 11:27:17;;;;;;;0.40;0.40;;;6.00;87.50;;;;;;5027380;28;20188;-79
2021/01/07 11:29:44;;;;;;;0.53;0.53;;;6.00;87.40;;;;;;5031425;28;20275;-76
2021/01/07 11:32:09;;;;;;;1.53;0.80;;;6.10;86.90;;;;;;5024968;28;20246;-76
2021/01/07 11:34:35;;;;;;;0.83;0.83;;;6.10;86.80;;;;;;5019167;28;20172;-79
2021/01/07 11:37:12;;;;;;;0.90;0.90;;;6.10;86.80;;;;;;5016734;28;20181;-79
2021/01/07 11:39:56;;;;;;;0.67;0.67;;;6.00;86.70;;;;;;5035402;28;20184;-77
2021/01/07 11:42:36;;;;;;;1.33;1.23;;;6.00;86.80;;;;;;5050082;28;20172;-78
2021/01/07 11:45:14;;;;;;;0.90;0.90;;;6.10;86.80;;;;;;5031355;28;20176;-78
2021/01/07 11:47:56;;;;;;;0.40;0.40;;;6.10;86.80;;;;;;5021341;28;20176;-78
2021/01/07 11:50:23;;;;;;;0.60;0.60;;;6.10;86.70;;;;;;5027414;28;20201;-76
2021/01/07 11:52:51;;;;;;;0.50;0.50;;;6.10;86.90;;;;;;4992919;28;20213;-78
2021/01/07 11:55:19;;;;;;;0.70;0.70;;;6.10;86.90;;;;;;5023980;28;20256;-77
2021/01/07 11:57:47;;;;;;;1.47;0.63;;;6.10;87.00;;;;;;5027444;28;20203;-73
2021/01/07 12:00:17;;;;;;;0.50;0.43;;;6.20;87.00;;;;;;5025310;28;20923;-74
2021/01/07 12:02:48;;;;;;;1.57;0.57;;;6.20;87.00;;;;;;5018567;28;20181;-78
2021/01/07 12:05:17;;;;;;;0.40;0.40;;;6.30;86.90;;;;;;5011626;28;20859;-77
2021/01/07 12:08:02;;;;;;;0.27;0.27;;;6.30;86.90;;;;;;5010326;28;20561;-78
2021/01/07 12:10:33;;;;;;;0.30;0.30;;;6.30;86.70;;;;;;5025689;28;20208;-77
2021/01/07 12:13:12;;;;;;;0.40;0.40;;;6.30;86.60;;;;;;5019821;28;20239;-77
2021/01/07 12:15:44;;;;;;;0.30;0.30;;;6.40;86.60;;;;;;5024022;28;20267;-77
2021/01/07 12:18:12;;;;;;;0.50;0.50;;;6.40;86.80;;;;;;5028283;28;20768;-78
2021/01/07 12:20:40;;;;;;;0.30;0.30;;;6.40;86.80;;;;;;5012208;28;20184;-78
2021/01/07 12:23:09;;;;;;;0.40;0.40;;;6.50;86.90;;;;;;5025262;28;20617;-77
2021/01/07 12:25:38;;;;;;;0.40;0.40;;;6.50;86.90;;;;;;5027327;28;20180;-77
2021/01/07 12:28:05;;;;;;;0.60;0.60;;;6.50;87.20;;;;;;5028351;28;20727;-76
2021/01/07 12:30:37;;;;;;;0.80;0.80;;;6.60;87.40;;;;;;5013243;28;20180;-77
2021/01/07 12:33:18;;;;;;;1.50;0.73;;;6.60;87.60;;;;;;5028018;28;20196;-78
2021/01/07 12:35:58;;;;;;;1.10;0.73;;;6.50;87.60;;;;;;5016686;28;20216;-75
2021/01/07 12:38:52;;;;;;;0.77;0.60;;;6.40;87.70;;;;;;5009014;28;20168;-74
2021/01/07 12:41:25;;;;;;;1.23;0.93;;;6.40;87.80;;;;;;4996056;28;20181;-77
2021/01/07 12:43:56;;;;;;;1.00;1.00;;;6.30;88.40;;;;;;5009461;28;20192;-77
2021/01/07 12:46:28;;;;;;;5.73;0.90;;;6.30;88.50;;;;;;5031703;28;20203;-77
2021/01/07 12:48:55;;;;;;;2.93;1.00;;;6.20;88.50;;;;;;5008888;28;20274;-78
2021/01/07 12:51:21;;;;;;;1.00;1.00;;;6.20;88.60;;;;;;5018918;28;20628;-78
2021/01/07 12:53:47;;;;;;;0.90;0.90;;;6.20;88.60;;;;;;5013017;28;20966;-83
2021/01/07 12:56:33;;;;;;;0.63;0.63;;;6.20;88.90;;;;;;5034433;28;20184;-82
2021/01/07 12:59:07;;;;;;;0.60;0.60;;;6.10;88.60;;;;;;5024783;28;20187;-78
2021/01/07 13:01:52;;;;;;;0.60;0.60;;;6.10;89.10;;;;;;5030613;28;20266;-83
2021/01/07 13:04:52;;;;;;;0.60;0.60;;;6.10;89.20;;;;;;5013160;28;20184;-78
2021/01/07 13:07:19;;;;;;;0.90;0.47;;;6.00;89.50;;;;;;4953128;28;20205;-76
2021/01/07 13:09:46;;;;;;;0.50;0.50;;;6.00;89.50;;;;;;4954554;28;20198;-79
2021/01/07 13:12:13;;;;;;;0.57;0.57;;;6.00;89.60;;;;;;4939241;28;20217;-76
2021/01/07 13:14:42;;;;;;;1.40;1.00;;;6.00;89.70;;;;;;4970638;28;20214;-76
2021/01/07 13:17:09;;;;;;;1.10;0.67;;;6.00;90.00;;;;;;4966779;28;20257;-78
2021/01/07 13:19:35;;;;;;;0.93;0.87;;;6.00;90.10;;;;;;4969719;28;20661;-76
2021/01/07 13:22:04;;;;;;;0.70;0.70;;;6.00;90.30;;;;;;4965695;28;20178;-76
2021/01/07 13:24:32;;;;;;;0.87;0.87;;;6.00;90.60;;;;;;4949652;28;20194;-77
2021/01/07 13:26:58;;;;;;;0.67;0.67;;;5.90;90.80;;;;;;4968112;28;20201;-76
2021/01/07 13:29:24;;;;;;;0.40;0.40;;;5.80;90.60;;;;;;4965555;28;20198;-78
2021/01/07 13:31:49;;;;;;;0.50;0.50;;;5.80;90.70;;;;;;4950004;28;20320;-77
2021/01/07 13:34:16;;;;;;;2.20;0.50;;;5.80;91.20;;;;;;4966494;28;20210;-77
2021/01/07 13:36:42;;;;;;;0.60;0.40;;;5.70;90.90;;;;;;4968324;28;20258;-76
2021/01/07 13:39:09;;;;;;;0.40;0.40;;;5.70;91.00;;;;;;4965627;28;20293;-77
2021/01/07 13:41:36;;;;;;;0.40;0.40;;;5.70;91.20;;;;;;4957322;28;20868;-77
2021/01/07 13:44:09;;;;;;;0.30;0.30;;;5.60;91.60;;;;;;4992860;28;20242;-77
2021/01/07 13:46:38;;;;;;;0.67;0.67;;;5.60;91.80;;;;;;5034240;28;20680;-77
2021/01/07 13:49:09;;;;;;;0.53;0.53;;;5.50;91.90;;;;;;5019214;28;20916;-77
2021/01/07 13:51:41;;;;;;;0.30;0.30;;;5.50;92.40;;;;;;5017702;28;20578;-76
2021/01/07 13:54:09;;;;;;;0.50;0.50;;;5.40;92.10;;;;;;5010466;28;20228;-75
2021/01/07 13:56:35;;;;;;;0.40;0.40;;;5.40;92.50;;;;;;5028830;28;20176;-76
2021/01/07 13:59:01;;;;;;;0.40;0.40;;;5.40;93.10;;;;;;5030366;28;20226;-75
2021/01/07 14:01:27;;;;;;;0.37;0.37;;;5.30;93.40;;;;;;5014364;28;20179;-76
2021/01/07 14:03:55;;;;;;;0.40;0.40;;;5.20;93.40;;;;;;5027156;28;20860;-77
2021/01/07 14:06:22;;;;;;;0.30;0.30;;;5.30;94.00;;;;;;5022250;28;20576;-77
2021/01/07 14:09:04;;;;;;;1.33;0.50;;;5.20;93.70;;;;;;5030419;28;20191;-76
2021/01/07 14:11:34;;;;;;;0.30;0.30;;;5.20;93.70;;;;;;5025633;28;20199;-76
2021/01/07 14:14:02;;;;;;;0.40;0.40;;;5.20;93.50;;;;;;5028252;28;20204;-77
2021/01/07 14:16:28;;;;;;;0.83;0.40;;;5.20;93.20;;;;;;5027458;28;20191;-77
2021/01/07 14:18:54;;;;;;;0.50;0.50;;;5.20;93.40;;;;;;5009777;28;20267;-77
2021/01/07 14:21:19;;;;;;;0.43;0.43;;;5.20;93.70;;;;;;5026866;28;20917;-77
2021/01/07 14:23:45;;;;;;;0.60;0.60;;;5.20;93.70;;;;;;5031937;28;20175;-77
2021/01/07 14:26:13;;;;;;;1.23;0.50;;;5.30;93.60;;;;;;5032238;28;20176;-77
2021/01/07 14:28:53;;;;;;;1.90;0.60;;;5.30;93.60;;;;;;5031669;28;20224;-77
2021/01/07 14:31:23;;;;;;;0.90;0.77;;;5.40;93.60;;;;;;5013978;28;20169;-77
2021/01/07 14:33:50;;;;;;;0.60;0.60;;;5.40;93.20;;;;;;5030531;28;20212;-77
2021/01/07 14:36:20;;;;;;;1.47;0.67;;;5.40;93.30;;;;;;5013372;28;20632;-77
2021/01/07 14:38:51;;;;;;;0.70;0.70;;;5.40;93.20;;;;;;5031449;28;21000;-78
2021/01/07 14:41:19;;;;;;;0.80;0.80;;;5.50;92.90;;;;;;5049159;28;20183;-78
2021/01/07 14:43:47;;;;;;;2.00;0.70;;;5.50;93.00;;;;;;5029639;28;20212;-78
2021/01/07 14:46:16;;;;;;;4.37;0.70;;;5.50;92.80;;;;;;5014066;28;20287;-78
2021/01/07 14:48:48;;;;;;;2.30;1.00;;;5.50;92.50;;;;;;5013374;28;20668;-78
2021/01/07 14:51:16;;;;;;;0.60;0.50;;;5.60;92.50;;;;;;5020211;28;20181;-78
2021/01/07 14:53:43;;;;;;;0.50;0.50;;;5.60;92.70;;;;;;5025089;28;20582;-78
2021/01/07 14:56:13;;;;;;;1.43;0.80;;;5.70;92.70;;;;;;5031562;28;20176;-78
2021/01/07 14:58:58;;;;;;;1.17;0.70;;;5.70;92.40;;;;;;5013311;28;20630;-77
2021/01/07 15:01:29;;;;;;;0.50;0.50;;;5.70;91.90;;;;;;5031673;28;20614;-77
2021/01/07 15:03:57;;;;;;;0.97;0.90;;;5.70;91.60;;;;;;5009129;28;20176;-77
2021/01/07 15:06:26;;;;;;;1.00;1.00;;;5.70;91.90;;;;;;5029764;28;20192;-77
2021/01/07 15:09:03;;;;;;;1.40;0.83;;;5.70;91.80;;;;;;5031038;28;20220;-77
2021/01/07 15:11:40;;;;;;;0.73;0.73;;;5.70;91.60;;;;;;5019657;28;20873;-78
2021/01/07 15:14:12;;;;;;;3.40;1.10;;;5.70;92.00;;;;;;5031066;28;20194;-78
2021/01/07 15:16:42;;;;;;;1.00;1.00;;;5.60;92.10;;;;;;5030765;28;20169;-77
2021/01/07 15:19:27;;;;;;;1.13;1.13;;;5.60;92.10;;;;;;5030357;28;20246;-77
2021/01/07 15:22:11;;;;;;;3.27;1.90;;;5.70;92.40;;;;;;5031043;28;20187;-78
2021/01/07 15:24:55;;;;;;;5.90;2.50;;;5.70;92.30;;;;;;5029247;28;20169;-77
2021/01/07 15:27:56;;;;;;;3.73;2.47;;;5.70;92.20;;;;;;5001630;28;20605;-77
2021/01/07 15:30:26;;;;;;;1.70;1.60;;;5.70;92.00;;;;;;4907389;29;20230;-77
2021/01/07 15:33:03;;;;;;;2.87;1.77;;;5.70;91.40;;;;;;4898613;29;20207;-76
2021/01/07 15:35:34;;;;;;;4.33;1.47;;;5.80;91.40;;;;;;4911906;29;20255;-77